Route Details

Aircraft Information
Group: North America Fleet
Types: B738, B752, B762, B763
Route Data
Distance: 1287nm
Duration: 3h 20m
Origin METAR: KELP 080051Z 08011G20KT 10SM SCT075 SCT100 09/M04 A3014 RMK AO2 SLP186 VIRGA DSNT SW-N T00891039
Dest. METAR: KLAL 080055Z AUTO 10007KT 10SM CLR 20/12 A3027 RMK AO2 T02010119
Freight Data
(for Feb 8, 2023)
Load Factor:
39%
Manifested Cargo: 27,887lbs
Financial History
Total Freight: 81,383lbs
Average Load: 0lbs/flt
Fuel Used: 53,598lbs
Avg. Fuel Used: 0lbs/flt
Fuel Expense: $31,752
Avg. Fuel Expense: $0
Avg. Fuel Cost: $0/lbs
Total Gross Income: $207,527
Pilot Pay: $408
Total Expenses: $40,940
Total Revenue: $132,412
Average Revenue: $0

Capitol Logistics 369




KELP
El Paso International Airport
El Paso, Texas
KLAL
Lakeland Linder Regional Airport
Lakeland, Florida

Activity Log

Date Flight Route Aircraft Duration
07/28/2022 CPX369 TDOWN3 SFL DCT FST J86 LEV Y280 CHRGE RAYZZ2 B763 3h 29m
07/15/2022 CPX369 TDOWN3 SFL DCT CWK DCT KIAH DCT LCH J138 SJI J2 DEFUN DCT KTLH DCT KOCF DCT B752 3h 20m